Data for 02/12/2018

Time Sea-Level Adjusted Pressure Absolute Pressure Temperature Relative Humidity Dew Point   
(mb) (inHg) (mb) (inHg) (C) (F) (%) (C) (F)
00:05 1018 30.06 847 25.01 -16 3.2 71 -20.1 -4.2
00:10 1018 30.06 847 25.01 -16 3.2 70 -20.3 -4.5
00:15 1018 30.06 847 25.01 -16 3.1 71 -20.2 -4.3
00:20 1018 30.06 847 25.01 -16.1 3.1 71 -20.1 -4.2
00:25 1018 30.06 847 25.01 -16.1 3 71 -20.2 -4.3
00:30 1018 30.06 847 25.01 -16.1 3 70 -20.5 -4.8
00:35 1018 30.06 847 25.01 -16.2 2.9 69 -20.6 -5.1
00:40 1018 30.06 847 25.01 -16.2 2.8 67 -20.9 -5.7
00:45 1018 30.06 847 25.01 -16.2 2.8 66 -21.1 -6.1
00:50 1018 30.06 847 25.01 -16.3 2.7 67 -21.1 -6.1
00:55 1018 30.06 847 25.01 -16.3 2.7 66 -21.3 -6.3
01:00 1018 30.06 847 25.01 -16.3 2.7 66 -21.3 -6.4
01:05 1018 30.06 847 25.01 -16.3 2.7 65 -21.4 -6.5
01:10 1018 30.06 847 25.01 -16.3 2.6 64 -21.6 -6.9
01:15 1018 30.06 847 25.01 -16.3 2.6 64 -21.8 -7.2
01:20 1018 30.06 847 25.01 -16.4 2.5 64 -21.7 -7
01:25 1018 30.06 848 25.04 -16.4 2.4 64 -21.7 -7
01:30 1019 30.09 848 25.04 -16.4 2.5 64 -21.7 -7.1
01:35 1019 30.09 848 25.04 -16.4 2.4 64 -21.7 -7.1
01:40 1019 30.09 848 25.04 -16.4 2.4 64 -21.7 -7.1
01:45 1019 30.09 848 25.04 -16.5 2.4 65 -21.7 -7
01:50 1018 30.06 848 25.04 -16.5 2.4 65 -21.5 -6.8
01:55 1019 30.09 848 25.04 -16.5 2.3 65 -21.7 -7
02:00 1019 30.09 848 25.04 -16.5 2.3 65 -21.7 -7.1
02:05 1019 30.09 848 25.04 -16.5 2.2 65 -21.6 -6.9
02:10 1019 30.09 848 25.04 -16.6 2.1 66 -21.5 -6.7
02:15 1019 30.09 848 25.04 -16.6 2.1 67 -21.4 -6.6
02:20 1019 30.09 848 25.04 -16.8 1.8 67 -21.5 -6.7
02:25 1019 30.09 848 25.04 -16.9 1.7 68 -21.5 -6.7
02:30 1019 30.09 848 25.04 -16.9 1.6 68 -21.5 -6.7
02:35 1019 30.09 848 25.04 -16.9 1.5 67 -21.8 -7.2
02:40 1019 30.09 848 25.04 -17 1.4 68 -21.6 -7
02:45 1019 30.09 848 25.04 -17 1.3 67 -21.8 -7.2
02:50 1019 30.09 848 25.04 -17.1 1.3 67 -21.7 -7.1
02:55 1019 30.09 848 25.04 -17.1 1.3 67 -21.8 -7.3
03:00 1019 30.09 848 25.04 -17.1 1.2 67 -22 -7.5
03:05 1019 30.09 848 25.04 -17.2 1.1 67 -22 -7.6
03:10 1019 30.09 848 25.04 -17.3 0.9 67 -22 -7.6
03:15 1019 30.09 848 25.04 -17.3 0.8 67 -22 -7.6
03:20 1019 30.09 848 25.04 -17.4 0.7 67 -22.2 -7.9
03:25 1019 30.09 848 25.04 -17.4 0.6 67 -22.1 -7.8
03:30 1019 30.09 848 25.04 -17.5 0.5 67 -22.2 -8
03:35 1019 30.09 848 25.04 -17.6 0.4 67 -22.4 -8.3
03:40 1019 30.09 848 25.04 -17.6 0.3 67 -22.3 -8.1
03:45 1019 30.09 848 25.04 -17.7 0.2 66 -22.6 -8.6
03:50 1019 30.09 848 25.04 -17.7 0.1 66 -22.6 -8.6
03:55 1019 30.09 848 25.04 -17.8 -0 66 -22.6 -8.7
04:00 1019 30.09 848 25.04 -17.8 -0.1 66 -22.8 -9
04:05 1019 30.09 848 25.04 -17.9 -0.2 66 -22.8 -9
04:10 1019 30.09 848 25.04 -18 -0.3 66 -22.8 -9
04:15 1019 30.09 848 25.04 -18 -0.4 66 -22.8 -9.1
04:20 1019 30.09 848 25.04 -18.1 -0.5 67 -22.7 -8.9
04:25 1019 30.09 848 25.04 -18.2 -0.7 67 -22.8 -9.1
04:30 1019 30.09 848 25.04 -18.2 -0.7 67 -22.9 -9.3
04:35 1019 30.09 848 25.04 -18.2 -0.8 67 -22.9 -9.2
04:40 1019 30.09 848 25.04 -18.3 -0.9 67 -23 -9.4
04:45 1019 30.09 848 25.04 -18.2 -0.8 67 -23 -9.3
04:50 1019 30.09 848 25.04 -18.3 -0.9 67 -23.1 -9.5
04:55 1019 30.09 848 25.04 -18.3 -1 67 -23 -9.4
05:00 1019 30.09 848 25.04 -18.4 -1.2 68 -22.9 -9.2
05:05 1019 30.09 848 25.04 -18.5 -1.2 68 -23 -9.5
05:10 1019 30.09 848 25.04 -18.4 -1.2 68 -23 -9.4
05:15 1019 30.09 848 25.04 -18.5 -1.3 69 -22.9 -9.2
05:20 1019 30.09 848 25.04 -18.6 -1.4 69 -23 -9.4
05:25 1019 30.09 848 25.04 -18.6 -1.5 69 -23 -9.4
05:30 1019 30.09 848 25.04 -18.6 -1.4 68 -23 -9.5
05:35 1019 30.09 848 25.04 -18.6 -1.5 69 -22.9 -9.3
05:40 1019 30.09 848 25.04 -18.6 -1.5 69 -23 -9.4
05:45 1019 30.09 848 25.04 -18.6 -1.5 69 -23 -9.4
05:50 1019 30.09 848 25.04 -18.6 -1.5 69 -23.1 -9.5
05:55 1019 30.09 848 25.04 -18.6 -1.6 69 -23 -9.5
06:00 1019 30.09 848 25.04 -18.7 -1.6 68 -23.2 -9.7
06:05 1019 30.09 848 25.04 -18.7 -1.6 68 -23.2 -9.7
06:10 1019 30.09 848 25.04 -18.7 -1.6 68 -23.2 -9.7
06:15 1019 30.09 848 25.04 -18.7 -1.7 69 -23.1 -9.6
06:20 1019 30.09 848 25.04 -18.7 -1.7 69 -23.2 -9.7
06:25 1019 30.09 848 25.04 -18.8 -1.8 69 -23.1 -9.7
06:30 1019 30.09 848 25.04 -18.8 -1.8 69 -23.1 -9.7
06:35 1019 30.09 848 25.04 -18.9 -1.9 69 -23.1 -9.6
06:40 1019 30.09 848 25.04 -18.9 -2 69 -23.2 -9.8
06:45 1019 30.09 848 25.04 -18.9 -2 69 -23.3 -9.9
06:50 1019 30.09 848 25.04 -18.9 -2.1 69 -23.3 -9.9
06:55 1019 30.09 848 25.04 -19 -2.1 69 -23.3 -10
07:00 1019 30.09 848 25.04 -19 -2.1 68 -23.4 -10.2
07:05 1019 30.09 848 25.04 -19 -2.1 68 -23.4 -10.1
07:10 1019 30.09 848 25.04 -19 -2.1 68 -23.5 -10.3
07:15 1019 30.09 848 25.04 -19 -2.2 68 -23.6 -10.5
07:20 1019 30.09 849 25.07 -19 -2.2 68 -23.6 -10.5
07:25 1019 30.09 849 25.07 -19.1 -2.3 68 -23.6 -10.6
07:30 1019 30.09 849 25.07 -19.1 -2.3 67 -23.7 -10.7
07:35 1019 30.09 849 25.07 -19.1 -2.4 67 -23.8 -10.8
07:40 1019 30.09 849 25.07 -19.1 -2.4 67 -23.8 -10.9
07:45 1019 30.09 849 25.07 -19.1 -2.3 66 -23.8 -10.9
07:50 1019 30.09 849 25.07 -19.1 -2.3 66 -23.9 -11
07:55 1020 30.12 849 25.07 -19.1 -2.4 66 -23.9 -11
08:00 1020 30.12 849 25.07 -19.1 -2.4 66 -23.9 -11
08:05 1020 30.12 849 25.07 -19.1 -2.4 67 -23.9 -10.9
08:10 1020 30.12 849 25.07 -19.1 -2.3 66 -23.9 -11
08:15 1019 30.09 849 25.07 -19 -2.3 66 -23.9 -11
08:20 1020 30.12 849 25.07 -19 -2.2 65 -24 -11.1
08:25 1020 30.12 849 25.07 -18.9 -2.1 65 -23.9 -11
08:30 1020 30.12 849 25.07 -18.8 -1.9 65 -23.9 -11
08:35 1019 30.09 849 25.07 -18.7 -1.7 64 -24 -11.1
08:40 1019 30.09 849 25.07 -18.6 -1.6 64 -23.9 -11
08:45 1019 30.09 849 25.07 -18.6 -1.4 63 -24 -11.1
08:50 1019 30.09 849 25.07 -18.5 -1.2 63 -23.9 -11
08:55 1019 30.09 848 25.04 -18.4 -1.1 62 -23.9 -11
09:00 1019 30.09 848 25.04 -18.1 -0.6 61 -23.9 -11
09:05 1019 30.09 848 25.04 -18.1 -0.5 61 -23.8 -10.8
09:10 1019 30.09 848 25.04 -18 -0.3 62 -23.7 -10.6
09:15 1019 30.09 848 25.04 -17.9 -0.1 61 -23.6 -10.6
09:20 1019 30.09 848 25.04 -17.9 -0.1 61 -23.6 -10.5
09:25 1019 30.09 848 25.04 -17.7 0.1 60 -23.8 -10.8
09:30 1019 30.09 848 25.04 -17.6 0.3 60 -23.7 -10.6
09:35 1019 30.09 848 25.04 -17.4 0.7 59 -23.5 -10.3
09:40 1019 30.09 848 25.04 -16.9 1.5 58 -23.4 -10.1
09:45 1019 30.09 848 25.04 -16.7 1.9 57 -23.4 -10.1
09:50 1019 30.09 848 25.04 -16.6 2.1 57 -23.2 -9.7
09:55 1019 30.09 849 25.07 -16.4 2.5 56 -23.2 -9.8
10:00 1019 30.09 849 25.07 -16.5 2.4 56 -23.2 -9.8
10:05 1020 30.12 849 25.07 -16.3 2.7 57 -23 -9.4
10:10 1020 30.12 849 25.07 -16.1 3 56 -22.9 -9.3
10:15 1020 30.12 849 25.07 -15.6 3.9 55 -22.8 -9
10:20 1020 30.12 849 25.07 -15.5 4.1 59 -21.8 -7.2
10:25 1020 30.12 849 25.07 -15.1 4.9 60 -21.2 -6.1
10:30 1020 30.12 849 25.07 -14.6 5.8 60 -20.8 -5.4
10:35 1020 30.12 849 25.07 -15.7 3.7 63 -21.3 -6.4
10:40 1020 30.12 849 25.07 -15.6 3.9 63 -21.1 -5.9
10:45 1020 30.12 849 25.07 -15.6 3.9 62 -21.3 -6.4
10:50 1020 30.12 849 25.07 -15.4 4.3 63 -21 -5.9
10:55 1020 30.12 849 25.07 -14.8 5.5 59 -21 -5.9
11:00 1020 30.12 849 25.07 -15 5 65 -20.2 -4.3
11:05 1020 30.12 849 25.07 -15 5 64 -20.5 -4.8
11:10 1020 30.12 849 25.07 -14.4 6.2 59 -20.6 -5.1
11:15 1020 30.12 849 25.07 -14.7 5.6 61 -20.6 -5.1
11:20 1020 30.12 849 25.07 -14.8 5.4 63 -20.4 -4.6
11:25 1020 30.12 849 25.07 -15.9 3.4 64 -21.2 -6.1
11:30 1020 30.12 849 25.07 -15.8 3.6 67 -20.6 -5.1
11:35 1020 30.12 849 25.07 -14.7 5.6 61 -20.6 -5.1
11:40 1020 30.12 849 25.07 -14.9 5.2 63 -20.5 -4.9
11:45 1020 30.12 849 25.07 -13.3 8 57 -20.2 -4.4
11:50 1020 30.12 849 25.07 -13.2 8.3 57 -19.9 -3.9
11:55 1020 30.12 849 25.07 -13.9 6.9 62 -19.8 -3.6
12:00 1020 30.12 849 25.07 -14 6.8 58 -20.6 -5.1
12:05 1020 30.12 849 25.07 -13.4 8 58 -20 -4
12:10 1020 30.12 849 25.07 -13.3 8.1 59 -19.7 -3.5
12:15 1020 30.12 849 25.07 -14.9 5.2 64 -20.3 -4.5
12:20 1020 30.12 849 25.07 -14.5 6 58 -21 -5.8
12:25 1020 30.12 849 25.07 -14.6 5.6 63 -20.2 -4.4
12:30 1020 30.12 849 25.07 -13.6 7.5 61 -19.6 -3.3
12:35 1020 30.12 849 25.07 -12.8 9 57 -19.5 -3.1
12:40 1020 30.12 849 25.07 -12 10.5 54 -19.6 -3.2
12:45 1020 30.12 849 25.07 -11.9 10.5 55 -19.2 -2.6
12:50 1020 30.12 849 25.07 -12.2 10.1 57 -19.1 -2.4
12:55 1020 30.12 849 25.07 -12.4 9.7 59 -18.9 -2
13:00 1020 30.12 849 25.07 -13.1 8.4 58 -19.7 -3.5
13:05 1020 30.12 849 25.07 -13 8.5 58 -19.6 -3.2
13:10 1020 30.12 849 25.07 -12.3 9.9 57 -19 -2.3
13:15 1020 30.12 849 25.07 -11.6 11 55 -19 -2.2
13:20 1020 30.12 849 25.07 -11.6 11.2 55 -18.9 -2
13:25 1020 30.12 849 25.07 -11.4 11.5 53 -19.2 -2.6
13:30 1020 30.12 849 25.07 -11.3 11.6 52 -19.3 -2.8
13:35 1019 30.09 849 25.07 -11.6 11.1 52 -19.7 -3.4
13:40 1019 30.09 849 25.07 -11.5 11.2 54 -19.1 -2.4
13:45 1019 30.09 849 25.07 -11.6 11.1 52 -19.5 -3.2
13:50 1019 30.09 849 25.07 -12.3 9.9 56 -19.3 -2.8
13:55 1019 30.09 849 25.07 -11.9 10.6 53 -19.5 -3.2
14:00 1019 30.09 849 25.07 -11.7 10.9 50 -20.3 -4.5
14:05 1019 30.09 848 25.04 -12.9 8.9 58 -19.6 -3.3
14:10 1019 30.09 849 25.07 -12.1 10.3 53 -19.8 -3.7
14:15 1019 30.09 849 25.07 -12.1 10.2 50 -20.6 -5
14:20 1019 30.09 848 25.04 -13.3 8.2 55 -20.6 -5
14:25 1019 30.09 848 25.04 -13 8.7 55 -20.3 -4.5
14:30 1019 30.09 848 25.04 -11.4 11.4 51 -19.6 -3.3
14:35 1019 30.09 848 25.04 -11.4 11.5 50 -19.9 -3.8
14:40 1019 30.09 848 25.04 -11.7 10.9 51 -19.9 -3.7
14:45 1019 30.09 848 25.04 -11.8 10.8 55 -19.2 -2.5
14:50 1019 30.09 848 25.04 -12 10.4 53 -19.7 -3.5
14:55 1019 30.09 848 25.04 -11.5 11.4 48 -20.4 -4.6
15:00 1019 30.09 848 25.04 -11.4 11.4 52 -19.5 -3
15:05 1019 30.09 848 25.04 -11.5 11.3 51 -19.8 -3.6
15:10 1019 30.09 848 25.04 -11.3 11.8 49 -19.9 -3.8
15:15 1019 30.09 848 25.04 -11.2 11.8 52 -19.3 -2.7
15:20 1019 30.09 848 25.04 -11.3 11.6 51 -19.5 -3.1
15:25 1019 30.09 848 25.04 -11.2 11.8 50 -19.6 -3.3
15:30 1019 30.09 848 25.04 -11.4 11.5 51 -19.5 -3.2
15:35 1019 30.09 848 25.04 -11.6 11.1 50 -20 -4
15:40 1019 30.09 848 25.04 -11.4 11.5 51 -19.5 -3.2
15:45 1019 30.09 848 25.04 -11.4 11.5 50 -19.8 -3.6
15:50 1019 30.09 848 25.04 -11.4 11.5 51 -19.6 -3.3
15:55 1019 30.09 849 25.07 -11.1 12 49 -19.9 -3.9
16:00 1019 30.09 849 25.07 -11.1 12.1 48 -20 -4
16:05 1019 30.09 849 25.07 -12 10.3 52 -20 -4.1
16:10 1019 30.09 849 25.07 -11.8 10.8 50 -20.3 -4.6
16:15 1020 30.12 849 25.07 -11.7 10.9 50 -20.1 -4.2
16:20 1020 30.12 849 25.07 -11.5 11.4 50 -20 -4
16:25 1020 30.12 849 25.07 -11.4 11.4 51 -19.7 -3.4
16:30 1020 30.12 849 25.07 -11.5 11.2 49 -20.3 -4.6
16:35 1020 30.12 849 25.07 -11.9 10.7 49 -20.6 -5
16:40 1020 30.12 849 25.07 -11.8 10.7 50 -20.4 -4.7
16:45 1020 30.12 849 25.07 -12.6 9.3 54 -20.2 -4.4
16:50 1020 30.12 849 25.07 -12.6 9.2 52 -20.6 -5.1
16:55 1020 30.12 849 25.07 -12.9 8.9 54 -20.4 -4.7
17:00 1020 30.12 849 25.07 -12.7 9.2 51 -20.8 -5.4
17:05 1020 30.12 849 25.07 -12.6 9.4 51 -20.7 -5.2
17:10 1020 30.12 849 25.07 -12.4 9.7 50 -20.7 -5.3
17:15 1020 30.12 849 25.07 -12.6 9.3 52 -20.6 -5.1
17:20 1020 30.12 849 25.07 -12.6 9.4 53 -20.3 -4.6
17:25 1020 30.12 849 25.07 -12.6 9.3 52 -20.6 -5.1
17:30 1020 30.12 849 25.07 -12.8 8.9 53 -20.5 -4.8
17:35 1020 30.12 849 25.07 -12.9 8.8 55 -20.2 -4.4
17:40 1020 30.12 849 25.07 -12.9 8.8 54 -20.5 -4.8
17:45 1020 30.12 849 25.07 -13.7 7.4 56 -20.6 -5
17:50 1020 30.12 849 25.07 -14.3 6.2 58 -20.9 -5.7
17:55 1020 30.12 849 25.07 -14.7 5.6 59 -21.1 -5.9
18:00 1020 30.12 849 25.07 -14.7 5.5 60 -20.8 -5.5
18:05 1020 30.12 849 25.07 -15 5 64 -20.4 -4.7
18:10 1020 30.12 849 25.07 -15 4.9 64 -20.4 -4.7
18:15 1020 30.12 849 25.07 -15.1 4.8 65 -20.4 -4.7
18:20 1020 30.12 849 25.07 -15 4.9 64 -20.3 -4.6
18:25 1020 30.12 849 25.07 -15.1 4.8 65 -20.3 -4.5
18:30 1020 30.12 849 25.07 -15.1 4.8 64 -20.5 -4.9
18:35 1020 30.12 849 25.07 -15.2 4.6 64 -20.5 -5
18:40 1020 30.12 849 25.07 -15.3 4.5 63 -20.8 -5.5
18:45 1020 30.12 849 25.07 -15.3 4.6 64 -20.6 -5.1
18:50 1020 30.12 849 25.07 -15.2 4.7 64 -20.6 -5
18:55 1020 30.12 849 25.07 -15.2 4.6 64 -20.5 -4.9
19:00 1020 30.12 849 25.07 -15.4 4.2 65 -20.6 -5
19:05 1020 30.12 849 25.07 -15.6 3.8 66 -20.6 -5
19:10 1020 30.12 849 25.07 -15.8 3.6 68 -20.5 -4.9
19:15 1020 30.12 849 25.07 -15.7 3.8 67 -20.5 -4.9
19:20 1020 30.12 849 25.07 -15.4 4.2 67 -20.3 -4.6
19:25 1020 30.12 849 25.07 -15.5 4.2 67 -20.3 -4.5
19:30 1020 30.12 849 25.07 -15.5 4.2 67 -20.3 -4.6
19:35 1020 30.12 849 25.07 -15.5 4 67 -20.3 -4.6
19:40 1020 30.12 849 25.07 -15.9 3.4 69 -20.4 -4.7
19:45 1020 30.12 849 25.07 -16.2 2.9 69 -20.6 -5
19:50 1020 30.12 849 25.07 -16.3 2.6 70 -20.6 -5.1
19:55 1020 30.12 849 25.07 -16.5 2.3 70 -20.7 -5.3
20:00 1020 30.12 849 25.07 -16.6 2.2 70 -20.8 -5.4
20:05 1020 30.12 849 25.07 -16.5 2.2 70 -20.8 -5.4
20:10 1020 30.12 849 25.07 -16.6 2.2 71 -20.7 -5.3
20:15 1020 30.12 849 25.07 -16.5 2.4 70 -20.8 -5.4
20:20 1020 30.12 849 25.07 -16.4 2.5 69 -20.8 -5.4
20:25 1020 30.12 849 25.07 -16.3 2.7 69 -20.8 -5.4
20:30 1020 30.12 849 25.07 -16.2 2.9 69 -20.7 -5.2
20:35 1020 30.12 849 25.07 -16.1 3.1 69 -20.6 -5
20:40 1020 30.12 849 25.07 -16.1 2.9 68 -20.7 -5.2
20:45 1020 30.12 849 25.07 -16.5 2.4 70 -20.8 -5.4
20:50 1020 30.12 849 25.07 -16.6 2.1 70 -20.9 -5.7
20:55 1020 30.12 849 25.07 -16.7 2 71 -20.8 -5.5
21:00 1020 30.12 849 25.07 -17 1.4 72 -20.9 -5.6
21:05 1020 30.12 849 25.07 -17.1 1.3 71 -21.1 -6.1
21:10 1020 30.12 849 25.07 -17.1 1.3 72 -21 -5.9
21:15 1020 30.12 849 25.07 -16.9 1.6 70 -21.1 -5.9
21:20 1020 30.12 849 25.07 -16.6 2.1 71 -20.8 -5.4
21:25 1020 30.12 849 25.07 -16.4 2.5 69 -20.8 -5.5
21:30 1020 30.12 849 25.07 -16.9 1.6 70 -21.1 -5.9
21:35 1020 30.12 849 25.07 -17.3 1 72 -21.1 -6
21:40 1020 30.12 849 25.07 -17.4 0.8 73 -21 -5.9
21:45 1020 30.12 849 25.07 -17.2 1.1 73 -20.9 -5.6
21:50 1020 30.12 850 25.1 -16.7 1.9 71 -20.8 -5.4
21:55 1020 30.12 850 25.1 -16.4 2.5 71 -20.6 -5
22:00 1020 30.12 850 25.1 -16.3 2.7 70 -20.6 -5
22:05 1021 30.15 850 25.1 -16.3 2.7 70 -20.5 -5
22:10 1021 30.15 850 25.1 -16.4 2.4 71 -20.6 -5
22:15 1021 30.15 850 25.1 -16.7 2 72 -20.6 -5
22:20 1021 30.15 850 25.1 -16.9 1.7 73 -20.7 -5.2
22:25 1021 30.15 850 25.1 -16.9 1.5 72 -20.9 -5.6
22:30 1021 30.15 850 25.1 -17.1 1.3 72 -21 -5.9
22:35 1021 30.15 850 25.1 -17.1 1.3 73 -20.9 -5.6
22:40 1021 30.15 850 25.1 -16.7 1.9 72 -20.7 -5.3
22:45 1021 30.15 850 25.1 -16.6 2.1 72 -20.6 -5.1
22:50 1021 30.15 850 25.1 -16.5 2.3 71 -20.7 -5.2
22:55 1021 30.15 850 25.1 -16.5 2.3 74 -20.1 -4.2
23:00 1021 30.15 850 25.1 -16.7 2 72 -20.6 -5.1
23:05 1021 30.15 850 25.1 -17.4 0.7 74 -21 -5.8
23:10 1021 30.15 850 25.1 -17.3 0.9 73 -21.1 -5.9
23:15 1021 30.15 850 25.1 -17.1 1.2 74 -20.8 -5.4
23:20 1021 30.15 850 25.1 -16.5 2.2 71 -20.7 -5.2
23:25 1020 30.12 850 25.1 -16.8 1.8 72 -20.7 -5.3
23:30 1021 30.15 850 25.1 -16.9 1.6 72 -20.8 -5.5
23:35 1020 30.12 850 25.1 -16.3 2.6 70 -20.6 -5.1
23:40 1020 30.12 850 25.1 -16.4 2.5 69 -20.8 -5.5
23:45 1020 30.12 850 25.1 -17.5 0.5 73 -21.2 -6.2
23:50 1020 30.12 849 25.07 -17.8 0.1 75 -21.2 -6.2
23:55 1020 30.12 849 25.07 -17.3 0.9 73 -21.1 -6
24:00 1020 30.12 849 25.07 -16.9 1.5 71 -20.9 -5.7